Time;durP1;ratioP1;P1;durP2;ratioP2;P2;SDS_P1;SDS_P2;PMS_P1;PMS_P2;Temp;Humidity;BMP_temperature;BMP_pressure;BME280_temperature;BME280_humidity;BME280_pressure;Samples;Min_cycle;Max_cycle;Signal;HPM_P1;HPM_P2
2023/10/11 00:00:34;;;;;;;8.93;5.03;;;15.40;99.90;;;;;;5034316;28;20168;-75
2023/10/11 00:03:32;;;;;;;12.07;5.57;;;15.40;99.90;;;;;;5034217;28;20192;-75
2023/10/11 00:05:59;;;;;;;7.37;4.97;;;15.40;99.90;;;;;;5044192;28;20242;-77
2023/10/11 00:08:38;;;;;;;10.67;4.73;;;15.40;99.90;;;;;;5052016;28;20211;-75
2023/10/11 00:11:06;;;;;;;13.37;5.30;;;15.40;99.90;;;;;;5053446;28;20535;-75
2023/10/11 00:13:35;;;;;;;11.53;5.43;;;15.40;99.90;;;;;;5052550;28;20206;-75
2023/10/11 00:16:09;;;;;;;8.67;5.40;;;15.30;99.90;;;;;;5038557;28;20532;-75
2023/10/11 00:18:38;;;;;;;15.83;5.53;;;15.30;99.90;;;;;;5034398;28;20601;-75
2023/10/11 00:23:55;;;;;;;11.10;5.57;;;15.30;99.90;;;;;;5035124;28;20281;-77
2023/10/11 00:26:22;;;;;;;11.73;4.90;;;15.30;99.90;;;;;;5049960;28;20175;-77
2023/10/11 00:28:48;;;;;;;9.70;4.87;;;15.30;1.00;;;;;;5054298;28;20253;-77
2023/10/11 00:31:17;;;;;;;10.23;5.23;;;15.30;1.00;;;;;;5054021;28;20667;-77
2023/10/11 00:33:42;;;;;;;8.43;5.20;;;15.30;1.00;;;;;;5052765;28;20205;-77
2023/10/11 00:36:08;;;;;;;9.87;4.97;;;15.30;1.00;;;;;;5052248;28;20195;-77
2023/10/11 00:38:43;;;;;;;9.17;5.27;;;15.20;1.00;;;;;;5052324;28;20702;-77
2023/10/11 00:41:18;;;;;;;11.20;4.93;;;15.20;1.00;;;;;;5052681;28;20167;-77
2023/10/11 00:43:55;;;;;;;8.37;5.30;;;15.20;1.00;;;;;;5053682;28;20491;-75
2023/10/11 00:46:26;;;;;;;11.23;6.03;;;15.30;1.00;;;;;;5037191;28;20687;-77
2023/10/11 00:48:54;;;;;;;8.87;5.20;;;15.20;1.00;;;;;;5053188;28;20266;-77
2023/10/11 00:51:29;;;;;;;13.23;5.37;;;15.20;1.00;;;;;;5054299;28;20172;-77
2023/10/11 00:53:56;;;;;;;11.23;5.87;;;15.30;1.00;;;;;;5052693;28;20210;-77
2023/10/11 00:56:22;;;;;;;12.73;5.33;;;15.10;1.00;;;;;;5036727;28;20212;-77
2023/10/11 00:58:52;;;;;;;7.80;4.87;;;15.10;1.00;;;;;;5032488;28;20250;-75
2023/10/11 01:01:18;;;;;;;8.07;4.80;;;15.10;1.00;;;;;;5034061;28;20172;-77
2023/10/11 01:03:44;;;;;;;10.87;5.00;;;15.10;1.00;;;;;;5032869;28;20659;-77
2023/10/11 01:06:10;;;;;;;11.43;5.40;;;15.10;1.00;;;;;;5047026;28;20262;-78
2023/10/11 01:08:40;;;;;;;14.00;5.60;;;15.10;1.00;;;;;;5053958;28;20219;-77
2023/10/11 01:11:08;;;;;;;10.83;5.30;;;15.00;1.00;;;;;;5054584;28;20163;-77
2023/10/11 01:13:33;;;;;;;8.47;5.17;;;15.00;1.00;;;;;;5052537;28;20199;-77
2023/10/11 01:16:00;;;;;;;10.20;5.40;;;15.00;1.00;;;;;;5051158;28;20239;-77
2023/10/11 01:18:27;;;;;;;11.20;5.23;;;15.10;1.00;;;;;;5052798;28;20241;-77
2023/10/11 01:20:52;;;;;;;13.77;5.40;;;15.10;1.00;;;;;;5053930;28;20164;-77
2023/10/11 01:23:18;;;;;;;10.33;4.73;;;15.10;1.00;;;;;;5052195;28;20697;-77
2023/10/11 01:25:43;;;;;;;9.53;4.80;;;15.10;1.00;;;;;;5042136;28;20180;-77
2023/10/11 01:28:09;;;;;;;10.93;5.23;;;15.10;1.00;;;;;;5033871;28;20229;-76
2023/10/11 01:30:34;;;;;;;12.17;5.23;;;15.10;1.00;;;;;;5032215;28;20200;-77
2023/10/11 01:33:00;;;;;;;9.90;5.17;;;15.10;1.00;;;;;;5033614;28;20200;-77
2023/10/11 01:35:35;;;;;;;10.63;5.07;;;15.10;1.00;;;;;;5039461;28;20190;-75
2023/10/11 01:38:04;;;;;;;11.47;5.00;;;15.10;1.00;;;;;;5053752;28;20183;-77
2023/10/11 01:40:31;;;;;;;10.90;5.20;;;15.10;1.00;;;;;;5053291;28;20659;-77
2023/10/11 01:42:57;;;;;;;9.13;4.23;;;15.10;1.00;;;;;;5053582;28;20308;-76
2023/10/11 01:45:25;;;;;;;11.10;4.97;;;15.10;1.00;;;;;;5052136;28;20179;-77
2023/10/11 01:47:51;;;;;;;12.30;4.80;;;15.20;1.00;;;;;;5046301;28;20246;-77
2023/10/11 01:50:17;;;;;;;8.87;4.97;;;15.10;1.00;;;;;;5032183;28;20188;-77
2023/10/11 01:52:47;;;;;;;8.47;4.53;;;15.00;1.00;;;;;;5033366;28;20196;-77
2023/10/11 01:55:13;;;;;;;8.50;4.97;;;15.00;1.00;;;;;;5031650;28;20541;-77
2023/10/11 01:57:41;;;;;;;12.13;4.83;;;15.00;1.00;;;;;;5032054;28;20250;-77
2023/10/11 02:00:13;;;;;;;11.07;5.83;;;15.00;1.00;;;;;;5032031;28;20180;-77
2023/10/11 02:02:55;;;;;;;8.90;5.17;;;15.00;1.00;;;;;;5033246;28;20188;-77
2023/10/11 02:05:24;;;;;;;10.23;4.87;;;15.00;1.00;;;;;;5032660;28;20537;-77
2023/10/11 02:07:50;;;;;;;9.77;5.83;;;15.00;1.00;;;;;;5034386;28;20263;-77
2023/10/11 02:10:26;;;;;;;8.33;4.80;;;15.00;1.00;;;;;;5037532;28;20278;-77
2023/10/11 02:12:55;;;;;;;11.60;5.50;;;15.00;1.00;;;;;;5037357;28;20664;-77
2023/10/11 02:15:21;;;;;;;10.10;4.97;;;15.00;1.00;;;;;;5041731;28;20246;-77
2023/10/11 02:17:51;;;;;;;8.83;4.60;;;14.90;1.00;;;;;;5056148;28;20294;-77
2023/10/11 02:20:20;;;;;;;11.33;5.50;;;14.90;1.00;;;;;;5055702;28;20209;-77
2023/10/11 02:22:51;;;;;;;10.67;4.90;;;14.90;1.00;;;;;;5055966;28;20252;-77
2023/10/11 02:25:21;;;;;;;11.03;5.30;;;14.90;1.00;;;;;;5050817;28;20184;-77
2023/10/11 02:27:50;;;;;;;12.00;5.60;;;14.90;1.00;;;;;;5037588;28;20171;-77
2023/10/11 02:30:21;;;;;;;9.30;5.33;;;14.80;1.00;;;;;;5035348;28;20203;-74
2023/10/11 02:32:58;;;;;;;10.97;5.07;;;14.80;1.00;;;;;;5037526;28;20196;-77
2023/10/11 02:35:26;;;;;;;13.60;5.83;;;14.80;1.00;;;;;;5041860;28;20205;-77
2023/10/11 02:37:55;;;;;;;14.17;5.53;;;14.70;1.00;;;;;;5055981;28;20195;-77
2023/10/11 02:40:24;;;;;;;13.33;5.40;;;14.80;1.00;;;;;;5054927;28;20669;-77
2023/10/11 02:42:51;;;;;;;9.53;5.37;;;14.70;1.00;;;;;;5055842;28;20204;-77
2023/10/11 02:45:22;;;;;;;8.43;4.80;;;14.70;1.00;;;;;;5055413;28;20562;-76
2023/10/11 02:47:48;;;;;;;11.17;5.20;;;14.70;1.00;;;;;;5057129;28;20179;-77
2023/10/11 02:50:13;;;;;;;12.00;5.50;;;14.60;1.00;;;;;;5053997;28;20202;-77
2023/10/11 02:52:41;;;;;;;10.20;5.43;;;14.60;1.00;;;;;;5055860;28;20274;-77
2023/10/11 02:57:45;;;;;;;10.67;5.23;;;14.50;1.00;;;;;;5056031;28;20635;-77
2023/10/11 03:00:23;;;;;;;8.93;4.90;;;14.50;9.70;;;;;;5054898;28;20262;-77
2023/10/11 03:02:55;;;;;;;11.17;5.73;;;14.40;30.90;;;;;;5055764;28;20730;-77
2023/10/11 03:05:27;;;;;;;14.87;5.53;;;14.40;67.10;;;;;;5055530;28;20171;-77
2023/10/11 03:08:17;;;;;;;8.60;5.70;;;14.40;91.20;;;;;;5055558;28;20183;-77
2023/10/11 03:10:44;;;;;;;10.93;5.90;;;14.40;99.90;;;;;;5053320;28;20191;-77
2023/10/11 03:13:23;;;;;;;11.90;5.30;;;14.40;99.90;;;;;;5055544;28;20626;-77
2023/10/11 03:15:55;;;;;;;12.60;6.13;;;14.30;99.90;;;;;;5055961;28;20160;-77
2023/10/11 03:18:31;;;;;;;13.77;6.17;;;14.30;99.90;;;;;;5056339;28;20194;-76
2023/10/11 03:21:15;;;;;;;12.63;6.40;;;14.20;99.90;;;;;;5053508;28;20187;-77
2023/10/11 03:23:44;;;;;;;9.67;5.33;;;14.30;99.90;;;;;;5055255;28;20211;-77
2023/10/11 03:26:23;;;;;;;13.27;5.90;;;14.30;99.90;;;;;;5055332;28;20544;-76
2023/10/11 03:29:03;;;;;;;12.57;5.33;;;14.30;99.90;;;;;;5055272;28;20158;-77
2023/10/11 03:31:33;;;;;;;15.10;5.47;;;14.30;99.90;;;;;;5043966;28;20279;-77
2023/10/11 03:34:00;;;;;;;17.90;5.73;;;14.30;99.90;;;;;;5033908;28;20180;-77
2023/10/11 03:36:43;;;;;;;13.67;5.80;;;14.30;99.90;;;;;;5035203;28;20180;-77
2023/10/11 03:39:09;;;;;;;13.50;5.77;;;14.20;99.90;;;;;;5033686;28;20192;-77
2023/10/11 03:41:45;;;;;;;11.87;5.30;;;14.20;99.90;;;;;;5047054;28;20180;-77
2023/10/11 03:44:17;;;;;;;11.73;5.43;;;14.20;99.90;;;;;;5054979;28;20171;-77
2023/10/11 03:46:54;;;;;;;12.17;5.40;;;14.20;99.90;;;;;;5055054;28;20154;-76
2023/10/11 03:51:49;;;;;;;8.67;4.87;;;14.10;99.90;;;;;;5054811;28;20218;-77
2023/10/11 03:54:22;;;;;;;10.83;4.87;;;14.20;99.90;;;;;;5054644;28;20222;-77
2023/10/11 03:56:55;;;;;;;10.27;5.50;;;14.20;99.90;;;;;;5055402;28;20160;-77
2023/10/11 03:59:26;;;;;;;10.90;5.83;;;14.10;99.90;;;;;;5053572;28;20222;-77
2023/10/11 04:01:53;;;;;;;15.93;5.20;;;14.10;99.90;;;;;;5054463;28;20160;-77
2023/10/11 04:04:21;;;;;;;11.47;5.17;;;14.10;99.90;;;;;;5054619;28;20712;-77
2023/10/11 04:06:51;;;;;;;9.07;5.20;;;14.10;99.90;;;;;;5054540;28;20647;-77
2023/10/11 04:12:04;;;;;;;10.23;5.10;;;14.10;99.90;;;;;;5054989;28;20195;-76
2023/10/11 04:14:39;;;;;;;10.10;5.17;;;14.10;99.90;;;;;;5054536;28;20239;-77
2023/10/11 04:19:52;;;;;;;12.93;5.27;;;14.10;99.90;;;;;;5054772;28;20247;-77
2023/10/11 04:22:23;;;;;;;10.60;5.60;;;14.10;99.90;;;;;;5052771;28;20275;-77
2023/10/11 04:24:53;;;;;;;11.33;5.30;;;14.10;99.90;;;;;;5054483;28;20239;-77
2023/10/11 04:29:51;;;;;;;12.80;5.17;;;14.10;99.90;;;;;;5054252;28;20184;-77
2023/10/11 04:32:40;;;;;;;15.93;4.97;;;14.10;99.90;;;;;;5052389;28;20290;-77
2023/10/11 04:35:10;;;;;;;10.43;5.20;;;14.10;99.90;;;;;;5054015;28;20171;-77
2023/10/11 04:37:44;;;;;;;8.37;5.00;;;14.10;99.90;;;;;;5052595;28;20187;-77
2023/10/11 04:40:23;;;;;;;14.13;5.10;;;14.10;99.90;;;;;;5053849;28;20155;-77
2023/10/11 04:43:04;;;;;;;9.87;5.27;;;14.10;99.90;;;;;;5052758;28;20283;-77
2023/10/11 04:45:43;;;;;;;10.53;5.17;;;14.00;99.90;;;;;;5053136;28;20167;-77
2023/10/11 04:48:14;;;;;;;11.67;5.53;;;14.00;99.90;;;;;;5055782;28;20290;-77
2023/10/11 04:50:45;;;;;;;9.70;5.20;;;14.00;99.90;;;;;;5054757;28;20156;-77
2023/10/11 04:53:18;;;;;;;7.97;5.47;;;14.00;99.90;;;;;;5053829;28;20203;-77
2023/10/11 04:55:58;;;;;;;17.93;6.30;;;14.10;99.90;;;;;;5052143;28;20243;-76
2023/10/11 04:58:49;;;;;;;11.93;5.77;;;14.10;99.90;;;;;;5052250;28;20195;-77
2023/10/11 05:01:22;;;;;;;13.70;6.40;;;14.00;99.90;;;;;;5052317;28;20594;-76
2023/10/11 05:04:00;;;;;;;8.70;4.87;;;14.00;99.90;;;;;;5052000;28;20195;-77
2023/10/11 05:06:39;;;;;;;10.63;5.23;;;14.10;99.90;;;;;;5052311;28;20247;-77
2023/10/11 05:11:44;;;;;;;11.83;5.27;;;14.10;99.90;;;;;;5053093;28;20261;-75
2023/10/11 05:16:59;;;;;;;9.23;5.13;;;14.10;99.90;;;;;;5053242;28;20167;-77
2023/10/11 05:19:34;;;;;;;12.07;5.17;;;14.00;99.90;;;;;;5051715;28;20195;-77
2023/10/11 05:22:03;;;;;;;12.23;5.67;;;14.10;99.90;;;;;;5053134;28;20187;-77
2023/10/11 05:25:12;;;;;;;11.03;4.93;;;14.00;99.90;;;;;;5053121;28;20235;-77
2023/10/11 05:33:14;;;;;;;14.87;4.80;;;14.10;99.90;;;;;;5052796;28;20187;-77
2023/10/11 05:35:59;;;;;;;15.93;5.30;;;14.10;99.90;;;;;;5052616;28;20159;-77
2023/10/11 05:52:08;;;;;;;11.17;5.27;;;13.90;97.40;;;;;;5052867;28;20202;-77
2023/10/11 05:54:36;;;;;;;14.97;5.87;;;14.10;48.60;;;;;;5051321;28;20176;-77
2023/10/11 05:57:06;;;;;;;16.97;6.03;;;14.10;22.60;;;;;;5052939;28;20167;-77
2023/10/11 05:59:32;;;;;;;16.30;5.93;;;14.10;7.70;;;;;;5051511;28;20225;-77
2023/10/11 06:01:58;;;;;;;9.93;5.80;;;14.10;1.00;;;;;;5051087;28;20286;-77
2023/10/11 06:04:24;;;;;;;15.40;5.80;;;14.10;1.00;;;;;;5052652;28;20167;-77
2023/10/11 06:06:57;;;;;;;9.23;5.40;;;14.10;1.00;;;;;;5053040;28;20172;-77
2023/10/11 06:09:27;;;;;;;11.43;5.43;;;14.20;1.30;;;;;;5051310;28;20160;-77
2023/10/11 06:11:53;;;;;;;12.13;5.40;;;14.10;1.00;;;;;;5036034;28;20191;-77
2023/10/11 06:14:19;;;;;;;8.90;5.30;;;14.20;9.60;;;;;;5046383;28;22164;-77
2023/10/11 06:16:49;;;;;;;15.20;5.17;;;14.00;99.90;;;;;;5052692;28;20599;-77
2023/10/11 06:19:18;;;;;;;10.67;5.23;;;14.20;77.00;;;;;;5052369;28;20191;-74
2023/10/11 06:21:58;;;;;;;8.13;5.13;;;14.20;53.10;;;;;;5051235;28;20485;-74
2023/10/11 06:24:32;;;;;;;11.00;5.90;;;14.20;48.40;;;;;;5050943;28;20163;-75
2023/10/11 06:29:45;;;;;;;12.17;5.97;;;14.30;38.10;;;;;;5052746;28;20658;-77
2023/10/11 06:32:11;;;;;;;14.27;5.63;;;14.30;32.40;;;;;;5049620;28;20337;-77
2023/10/11 06:34:38;;;;;;;9.30;4.37;;;14.30;30.00;;;;;;5052603;28;20188;-77
2023/10/11 06:37:06;;;;;;;11.77;5.30;;;14.40;15.70;;;;;;5052606;28;20175;-77
2023/10/11 06:44:58;;;;;;;13.00;5.07;;;14.50;1.00;;;;;;5052554;28;20163;-76
2023/10/11 06:47:25;;;;;;;11.47;5.77;;;14.50;1.00;;;;;;5051513;28;20249;-77
2023/10/11 06:49:55;;;;;;;12.97;4.97;;;14.60;99.90;;;;;;5052574;28;20174;-77
2023/10/11 06:52:25;;;;;;;10.10;5.10;;;14.60;99.90;;;;;;5050926;28;20261;-76
2023/10/11 06:57:45;;;;;;;13.57;5.27;;;14.70;91.70;;;;;;5057731;28;20229;-77
2023/10/11 07:00:20;;;;;;;13.57;5.43;;;14.60;85.90;;;;;;5056546;28;20205;-76
2023/10/11 07:02:47;;;;;;;10.23;5.20;;;14.70;78.20;;;;;;5055628;28;20227;-77
2023/10/11 07:05:17;;;;;;;13.07;5.30;;;14.70;67.70;;;;;;5055811;28;20172;-77
2023/10/11 07:07:47;;;;;;;14.87;5.67;;;14.70;64.00;;;;;;5054448;28;20180;-77
2023/10/11 07:10:32;;;;;;;17.03;5.07;;;14.80;63.50;;;;;;5055736;28;20546;-77
2023/10/11 07:13:05;;;;;;;12.40;5.70;;;14.80;60.00;;;;;;5050705;28;20286;-77
2023/10/11 07:15:41;;;;;;;12.23;5.10;;;14.80;60.20;;;;;;5034201;28;20176;-77
2023/10/11 07:18:12;;;;;;;14.67;5.53;;;14.80;63.30;;;;;;5035461;28;20714;-77
2023/10/11 07:20:48;;;;;;;11.17;4.80;;;14.90;61.40;;;;;;5052459;28;20191;-77
2023/10/11 07:23:19;;;;;;;9.37;5.53;;;15.10;55.50;;;;;;5053891;28;20214;-77
2023/10/11 07:25:49;;;;;;;13.77;5.07;;;15.00;51.50;;;;;;5055178;28;20549;-77
2023/10/11 07:28:35;;;;;;;10.73;5.67;;;15.00;41.70;;;;;;5055305;28;20536;-77
2023/10/11 07:31:03;;;;;;;11.13;4.90;;;15.00;35.10;;;;;;5049694;28;20198;-77
2023/10/11 07:33:29;;;;;;;8.80;5.50;;;15.10;29.00;;;;;;5055007;28;20269;-77
2023/10/11 07:35:55;;;;;;;9.63;5.10;;;15.10;24.10;;;;;;5053950;28;20581;-77
2023/10/11 07:38:21;;;;;;;10.67;5.53;;;15.20;15.30;;;;;;5054867;28;20257;-77
2023/10/11 07:40:52;;;;;;;9.30;4.93;;;15.30;1.00;;;;;;5052388;28;20176;-77
2023/10/11 07:43:18;;;;;;;12.20;5.30;;;15.30;1.00;;;;;;5054898;28;20191;-76
2023/10/11 07:45:50;;;;;;;8.13;4.37;;;15.40;1.00;;;;;;5054883;28;20168;-77
2023/10/11 07:48:16;;;;;;;16.13;4.97;;;15.50;1.00;;;;;;5054865;28;20513;-80
2023/10/11 07:50:42;;;;;;;17.30;5.80;;;15.50;1.00;;;;;;5052857;28;20670;-77
2023/10/11 07:53:13;;;;;;;12.10;5.07;;;15.60;1.00;;;;;;5053880;28;20191;-78
2023/10/11 07:55:40;;;;;;;15.83;5.37;;;15.60;1.00;;;;;;5056062;28;20636;-78
2023/10/11 07:58:08;;;;;;;12.83;4.60;;;15.70;1.00;;;;;;5054100;28;20202;-78
2023/10/11 08:00:40;;;;;;;7.63;4.63;;;15.80;1.00;;;;;;5052883;28;20237;-74
2023/10/11 08:03:06;;;;;;;15.73;4.97;;;15.80;1.00;;;;;;5033520;28;20676;-74
2023/10/11 08:05:45;;;;;;;14.17;5.47;;;15.70;1.00;;;;;;5040951;28;20263;-74
2023/10/11 08:08:13;;;;;;;11.03;5.43;;;16.00;1.00;;;;;;5032353;28;20186;-77
2023/10/11 08:10:44;;;;;;;16.47;4.93;;;16.10;1.00;;;;;;5033909;28;20199;-77
2023/10/11 08:13:23;;;;;;;9.83;4.77;;;16.10;1.00;;;;;;5033966;28;20279;-77
2023/10/11 08:15:55;;;;;;;10.57;4.50;;;16.20;1.00;;;;;;5035075;28;20184;-77
2023/10/11 08:18:21;;;;;;;13.33;4.80;;;16.20;1.00;;;;;;5042751;28;20207;-77
2023/10/11 08:20:47;;;;;;;14.60;4.40;;;16.30;1.00;;;;;;5032520;28;20176;-77
2023/10/11 08:23:27;;;;;;;14.23;4.33;;;16.40;1.00;;;;;;5033631;28;20214;-77
2023/10/11 08:25:52;;;;;;;9.90;4.10;;;16.50;1.00;;;;;;5034501;28;20289;-77
2023/10/11 08:28:27;;;;;;;10.37;4.13;;;16.60;1.00;;;;;;5052181;28;20175;-77
2023/10/11 08:30:56;;;;;;;10.97;4.10;;;16.60;1.00;;;;;;5053434;28;20274;-77
2023/10/11 08:33:22;;;;;;;8.97;4.50;;;16.70;1.00;;;;;;5053423;28;20199;-77
2023/10/11 08:35:52;;;;;;;13.43;4.07;;;16.80;1.00;;;;;;5050627;28;20179;-74
2023/10/11 08:38:18;;;;;;;13.43;4.37;;;17.00;1.00;;;;;;5031909;28;20253;-77
2023/10/11 08:40:46;;;;;;;14.60;4.40;;;17.10;1.00;;;;;;5038994;28;20627;-77
2023/10/11 08:43:15;;;;;;;9.97;4.07;;;17.20;1.00;;;;;;5051720;28;20187;-75
2023/10/11 08:45:48;;;;;;;7.53;4.57;;;17.30;1.00;;;;;;5052771;28;20175;-74
2023/10/11 08:48:15;;;;;;;6.93;3.93;;;17.30;1.00;;;;;;5051280;28;20183;-75
2023/10/11 08:50:51;;;;;;;9.07;4.23;;;17.60;1.00;;;;;;5045550;28;20204;-75
2023/10/11 08:53:20;;;;;;;11.30;4.50;;;17.60;1.00;;;;;;5033830;28;20199;-75
2023/10/11 08:55:54;;;;;;;8.40;3.67;;;17.60;1.00;;;;;;5051677;28;20179;-77
2023/10/11 08:58:23;;;;;;;9.70;3.63;;;17.80;1.00;;;;;;5051960;28;20194;-77
2023/10/11 09:00:52;;;;;;;7.73;3.90;;;17.90;1.00;;;;;;5043620;28;20275;-77
2023/10/11 09:03:23;;;;;;;9.40;3.73;;;17.90;1.00;;;;;;5032199;28;20200;-77
2023/10/11 09:05:58;;;;;;;13.00;3.97;;;18.00;1.00;;;;;;5032269;28;20176;-77
2023/10/11 09:08:31;;;;;;;10.83;4.10;;;18.50;99.90;;;;;;5033188;28;20589;-77
2023/10/11 09:11:11;;;;;;;12.67;4.30;;;18.40;99.90;;;;;;5040209;28;20191;-76
2023/10/11 09:13:37;;;;;;;8.73;3.80;;;18.50;99.90;;;;;;5050854;28;20202;-76
2023/10/11 09:16:08;;;;;;;7.17;4.00;;;18.50;99.90;;;;;;5051410;28;20220;-76
2023/10/11 09:18:34;;;;;;;8.17;4.00;;;18.60;99.90;;;;;;5053337;28;20180;-77
2023/10/11 09:21:09;;;;;;;10.93;4.30;;;18.60;99.90;;;;;;5042609;28;20187;-76
2023/10/11 09:23:37;;;;;;;8.37;3.90;;;18.70;99.90;;;;;;5032837;28;20187;-77
2023/10/11 09:26:05;;;;;;;11.07;3.90;;;18.90;99.90;;;;;;5032847;28;20165;-76
2023/10/11 09:28:33;;;;;;;9.17;4.27;;;19.00;99.90;;;;;;5032694;28;20167;-76
2023/10/11 09:31:10;;;;;;;9.67;4.10;;;19.20;99.90;;;;;;5032023;28;20339;-77
2023/10/11 09:33:38;;;;;;;11.97;4.43;;;19.20;99.90;;;;;;5032767;28;20184;-77
2023/10/11 09:36:06;;;;;;;9.03;3.90;;;19.40;99.90;;;;;;5032781;28;20202;-77
2023/10/11 09:38:38;;;;;;;10.53;4.10;;;19.40;99.90;;;;;;5032626;28;20203;-77
2023/10/11 09:41:08;;;;;;;9.13;3.83;;;19.60;99.90;;;;;;5039125;28;20263;-77
2023/10/11 09:43:44;;;;;;;8.40;3.90;;;19.60;99.90;;;;;;5052482;28;20234;-77
2023/10/11 09:46:13;;;;;;;12.20;4.23;;;19.60;99.90;;;;;;5052589;28;20174;-77
2023/10/11 09:48:42;;;;;;;10.33;3.80;;;19.60;99.90;;;;;;5052725;28;20180;-77
2023/10/11 09:51:14;;;;;;;9.63;4.43;;;19.50;99.90;;;;;;5051109;28;20223;-77
2023/10/11 09:53:49;;;;;;;14.47;4.30;;;19.70;99.90;;;;;;5050771;28;20231;-77
2023/10/11 09:57:06;;;;;;;6.27;3.67;;;19.70;99.90;;;;;;5052352;28;20209;-77
2023/10/11 09:59:41;;;;;;;8.90;3.67;;;19.80;99.90;;;;;;5052141;28;20662;-76
2023/10/11 10:02:19;;;;;;;12.13;3.53;;;19.90;99.90;;;;;;5052196;28;20195;-77
2023/10/11 10:04:49;;;;;;;9.50;3.60;;;19.80;99.90;;;;;;5052488;28;20160;-77
2023/10/11 10:07:26;;;;;;;8.57;4.00;;;20.00;99.90;;;;;;5051145;28;20176;-76
2023/10/11 10:10:02;;;;;;;9.80;4.20;;;20.00;99.90;;;;;;5052414;28;20205;-75
2023/10/11 10:12:40;;;;;;;8.57;3.40;;;20.20;99.90;;;;;;5043573;28;20207;-76
2023/10/11 10:15:12;;;;;;;10.43;4.40;;;20.20;99.90;;;;;;5052115;28;20152;-76
2023/10/11 10:17:37;;;;;;;16.13;3.63;;;20.30;99.90;;;;;;5050622;28;20202;-76
2023/10/11 10:20:34;;;;;;;9.13;3.70;;;20.50;51.90;;;;;;5051940;28;20646;-76
2023/10/11 10:23:15;;;;;;;12.17;3.93;;;20.50;99.90;;;;;;5051485;28;20673;-76
2023/10/11 10:25:48;;;;;;;11.53;4.63;;;20.60;75.10;;;;;;5051821;28;20171;-76
2023/10/11 10:28:32;;;;;;;9.67;4.47;;;20.50;68.70;;;;;;5052110;28;20180;-76
2023/10/11 10:31:09;;;;;;;13.90;4.10;;;20.50;16.60;;;;;;5053771;28;20282;-77
2023/10/11 10:33:35;;;;;;;15.43;4.50;;;20.50;4.10;;;;;;5055995;28;20202;-76
2023/10/11 10:36:28;;;;;;;10.30;4.20;;;20.60;99.90;;;;;;5054401;28;20171;-76
2023/10/11 10:39:00;;;;;;;14.83;4.10;;;20.60;99.90;;;;;;5055983;28;20207;-77
2023/10/11 10:41:27;;;;;;;19.53;4.23;;;20.60;99.90;;;;;;5054607;28;20245;-76
2023/10/11 10:44:13;;;;;;;9.50;4.00;;;20.70;88.80;;;;;;5055643;28;20192;-76
2023/10/11 10:46:50;;;;;;;15.10;4.30;;;20.60;99.90;;;;;;5054333;28;20266;-77
2023/10/11 10:49:23;;;;;;;11.67;4.03;;;20.60;99.90;;;;;;5055693;28;20179;-77
2023/10/11 10:51:49;;;;;;;11.53;4.17;;;20.70;99.90;;;;;;5041522;28;20195;-77
2023/10/11 10:54:21;;;;;;;12.47;4.20;;;20.70;99.90;;;;;;5044661;28;20183;-77
2023/10/11 10:56:48;;;;;;;15.83;4.67;;;20.70;99.90;;;;;;5055586;28;20690;-77
2023/10/11 10:59:15;;;;;;;15.10;4.60;;;20.80;99.90;;;;;;5055338;28;20202;-77
2023/10/11 11:01:44;;;;;;;15.40;4.30;;;20.90;99.90;;;;;;5055453;28;20237;-76
2023/10/11 11:04:11;;;;;;;14.07;4.53;;;20.90;99.90;;;;;;5055307;28;20179;-76
2023/10/11 11:06:44;;;;;;;17.60;4.37;;;20.90;99.90;;;;;;5055741;28;20240;-77
2023/10/11 11:09:14;;;;;;;19.27;4.50;;;21.00;99.90;;;;;;5056088;28;20164;-76
2023/10/11 11:11:44;;;;;;;22.97;5.03;;;21.20;99.90;;;;;;5055317;28;20202;-78
2023/10/11 11:14:10;;;;;;;14.20;4.73;;;21.20;99.90;;;;;;5044304;28;20192;-75
2023/10/11 11:16:40;;;;;;;14.47;5.00;;;21.20;99.90;;;;;;5035242;28;20172;-75
2023/10/11 11:19:16;;;;;;;18.70;4.20;;;21.20;99.90;;;;;;5035453;28;20192;-76
2023/10/11 11:21:46;;;;;;;18.33;4.33;;;21.30;99.90;;;;;;5033844;28;20267;-76
2023/10/11 11:24:27;;;;;;;20.00;4.77;;;21.30;99.90;;;;;;5034713;28;20184;-76
2023/10/11 11:26:56;;;;;;;17.27;4.70;;;21.30;99.90;;;;;;5035008;28;20616;-76
2023/10/11 11:29:32;;;;;;;14.50;4.97;;;21.30;99.90;;;;;;5035110;28;20180;-77
2023/10/11 11:32:14;;;;;;;15.10;4.63;;;21.40;99.90;;;;;;5036960;28;20611;-79
2023/10/11 11:35:02;;;;;;;20.23;4.63;;;21.50;99.90;;;;;;5046887;28;20183;-77
2023/10/11 11:37:29;;;;;;;16.97;4.20;;;21.60;99.90;;;;;;5055303;28;20183;-78
2023/10/11 11:40:18;;;;;;;20.03;4.73;;;21.70;99.90;;;;;;5054490;28;20267;-79
2023/10/11 11:42:47;;;;;;;22.87;4.80;;;21.80;99.90;;;;;;5037061;28;20245;-80
2023/10/11 11:45:14;;;;;;;14.67;4.63;;;21.60;99.90;;;;;;5036960;28;20157;-80
2023/10/11 11:47:40;;;;;;;17.17;4.70;;;21.70;99.90;;;;;;5037128;28;20177;-80
2023/10/11 11:50:18;;;;;;;14.83;4.50;;;21.80;99.90;;;;;;5037451;28;20176;-78
2023/10/11 11:52:43;;;;;;;19.80;4.30;;;21.80;99.90;;;;;;5035311;28;20634;-78
2023/10/11 11:55:10;;;;;;;13.50;5.03;;;21.80;99.90;;;;;;5036712;28;20253;-78
2023/10/11 11:57:35;;;;;;;18.23;4.33;;;21.90;99.90;;;;;;5035922;28;20550;-78
2023/10/11 12:00:19;;;;;;;19.93;5.13;;;21.90;99.90;;;;;;5035341;28;20255;-78
2023/10/11 12:02:45;;;;;;;19.37;4.87;;;21.80;84.70;;;;;;5052557;28;20609;-77
2023/10/11 12:05:11;;;;;;;18.90;5.17;;;21.90;99.90;;;;;;5053419;28;20180;-76
2023/10/11 12:07:36;;;;;;;17.07;4.67;;;21.90;99.90;;;;;;5051944;28;20746;-77
2023/10/11 12:10:08;;;;;;;15.37;4.80;;;22.00;99.90;;;;;;5053507;28;20207;-76
2023/10/11 12:12:36;;;;;;;21.93;4.73;;;21.90;99.90;;;;;;5052941;28;20687;-76
2023/10/11 12:15:03;;;;;;;12.47;4.57;;;21.80;99.90;;;;;;5054923;28;20171;-78
2023/10/11 12:17:29;;;;;;;10.63;3.90;;;21.80;99.90;;;;;;5052830;28;20233;-78
2023/10/11 12:19:55;;;;;;;13.07;4.30;;;21.90;99.90;;;;;;5054789;28;20251;-78
2023/10/11 12:22:22;;;;;;;14.40;4.97;;;21.90;99.90;;;;;;5054461;28;20199;-77
2023/10/11 12:24:48;;;;;;;18.03;4.70;;;21.90;95.60;;;;;;5052500;28;20186;-76
2023/10/11 12:27:13;;;;;;;21.73;5.13;;;22.00;99.90;;;;;;5052052;28;20180;-77
2023/10/11 12:29:39;;;;;;;17.87;4.90;;;22.00;99.90;;;;;;5052690;28;20187;-76
2023/10/11 12:32:07;;;;;;;15.00;4.50;;;22.00;99.90;;;;;;5046324;28;20208;-77
2023/10/11 12:34:33;;;;;;;12.93;4.63;;;22.00;99.90;;;;;;5037557;28;20185;-80
2023/10/11 12:37:01;;;;;;;17.50;4.67;;;22.10;99.90;;;;;;5048378;28;20206;-77
2023/10/11 12:39:31;;;;;;;20.40;5.17;;;22.00;99.90;;;;;;5052496;28;20298;-80
2023/10/11 12:41:59;;;;;;;18.63;4.60;;;22.20;99.90;;;;;;5054287;28;20187;-78
2023/10/11 12:44:28;;;;;;;16.37;4.57;;;22.10;82.90;;;;;;5043782;28;20215;-79
2023/10/11 12:46:54;;;;;;;20.77;5.30;;;22.10;99.90;;;;;;5033768;28;20179;-79
2023/10/11 12:49:20;;;;;;;11.60;4.33;;;22.20;99.90;;;;;;5035388;28;20184;-78
2023/10/11 12:51:46;;;;;;;15.83;4.73;;;22.20;99.90;;;;;;5033428;28;20180;-79
2023/10/11 12:54:15;;;;;;;15.57;4.63;;;22.20;99.90;;;;;;5041588;28;20183;-79
2023/10/11 12:56:45;;;;;;;20.47;5.13;;;22.20;99.90;;;;;;5055178;28;20202;-79
2023/10/11 12:59:12;;;;;;;20.77;4.80;;;22.20;99.90;;;;;;5055350;28;20194;-79
2023/10/11 13:01:49;;;;;;;16.47;4.70;;;22.10;99.90;;;;;;5053769;28;20665;-79
2023/10/11 13:04:23;;;;;;;14.20;4.50;;;22.40;99.90;;;;;;5052930;28;20291;-78
2023/10/11 13:06:50;;;;;;;16.57;5.07;;;22.40;99.90;;;;;;5054631;28;20654;-79
2023/10/11 13:09:21;;;;;;;17.20;4.93;;;22.30;63.20;;;;;;5044326;28;20207;-79
2023/10/11 13:11:47;;;;;;;13.43;4.43;;;22.30;99.30;;;;;;5052823;28;20661;-78
2023/10/11 13:14:20;;;;;;;18.80;4.50;;;22.40;99.90;;;;;;5052993;28;20184;-79
2023/10/11 13:16:54;;;;;;;15.20;4.30;;;22.40;97.70;;;;;;5054649;28;20615;-78
2023/10/11 13:19:24;;;;;;;14.13;4.47;;;22.40;85.60;;;;;;5051627;28;20732;-79
2023/10/11 13:21:59;;;;;;;14.27;4.50;;;22.50;99.90;;;;;;5053101;28;20210;-79
2023/10/11 13:24:26;;;;;;;13.37;4.33;;;22.40;99.90;;;;;;5054529;28;20159;-78
2023/10/11 13:26:54;;;;;;;16.53;4.20;;;22.50;76.40;;;;;;5054176;28;20180;-79
2023/10/11 13:29:21;;;;;;;13.37;4.30;;;22.40;99.60;;;;;;5051237;28;20631;-78
2023/10/11 13:31:54;;;;;;;15.07;4.53;;;22.30;99.90;;;;;;5053254;28;20188;-78
2023/10/11 13:34:28;;;;;;;13.87;3.83;;;22.50;99.90;;;;;;5053766;28;20175;-78
2023/10/11 13:36:57;;;;;;;15.17;4.57;;;22.50;99.90;;;;;;5052187;28;20190;-78
2023/10/11 13:39:26;;;;;;;19.07;4.10;;;22.30;99.90;;;;;;5040746;28;20207;-78
2023/10/11 13:42:14;;;;;;;14.43;4.23;;;22.20;99.90;;;;;;5033444;28;20178;-78
2023/10/11 13:44:43;;;;;;;11.67;4.27;;;22.30;99.90;;;;;;5032300;28;20577;-77
2023/10/11 13:47:09;;;;;;;9.03;3.43;;;22.40;99.90;;;;;;5033217;28;20248;-77
2023/10/11 13:49:37;;;;;;;13.20;4.03;;;22.30;99.90;;;;;;5042581;28;20200;-78
2023/10/11 13:52:03;;;;;;;12.23;3.77;;;22.40;99.90;;;;;;5050547;28;20215;-79
2023/10/11 13:54:49;;;;;;;10.23;4.00;;;22.40;99.90;;;;;;5052900;28;20199;-77